Arnegard, North Dakota
Current Conditions -  °F | °C
As of 2:52 PM on Friday 21 Nov 2014 (Local Time) from KISN Reporting Station
Clear Clear  
Wind Chill: 38°   Ceiling: Unl
Heat Index: 46°   Visibility: 10mi
Dew Point: 30°   Wind: 20mph
Humidity: 54%   Direction: 260°W
Pressure: 29.64"   Gusts: NA
Location:  47.81°N, 103.44°W
Report Text: KISN 212052Z AUTO 26017KT 10SM CLR 08/M01 A2964 RMK AO2 PK WND 27026/1958 SLP056 T00781011 55003
Loading
Personal Weather Stations






























Interactive Weather Map New forecast layout! Learn more

10-Day Weather Forecast

Advertisements
Track Severe Weather on mobile